Tver, Russia
Current Conditions -  °F | °C
As of 3:00 AM on Monday 24 Nov 2014 (Local Time) from UUEE Reporting Station
Light Snow Light Snow  
Wind Chill: 21°   Ceiling: 900
Heat Index: 28°   Visibility: 4mi
Dew Point: 25°   Wind: 7mph
Humidity: 86%   Direction: 80°E
Pressure: 30.62"   Gusts: NA
Location:  56.86°N, 35.89°E
Report Text: UUEE 240000Z 08003MPS 7000 -SN OVC009 M02/M04 Q1037 0742016257420157 NOSIG
Loading
Personal Weather Stations






























Interactive Weather Map New forecast layout! Learn more

10-Day Weather Forecast

Advertisements
Track Severe Weather on mobile